Aeroporto :
LOGIN :

Iscrizione | Disclaimer

   EN    FR    IT 

 










Sommario :    VFR   VFR Marginale   IFR   IFR Intensivo   IFR Molto Intensivo
Visibilità : 
Base nubi : 
>= 8 km
>= 3000ft
5 / 8 km
1000 / 3000 ft
1500m / 5 km
500 / 1000 ft
800 / 1500m
200 / 500 ft
< 800m
< 200 ft
Simboli :   Temporali  Nebbia  Neve Forte  Precipitazioni Forti  Vento > 20 kt
SIGMETs :   Varie  Temporali  Ghiacco  Turbolenza  Onda orograficha  Ceneri Vulcaniche







- Altitudine del aeroporto : 1411 ft
- Codice IATA : SZG


LOWS - Salzburg

ULTIMO METAR :
  • 240750Z 14013KT 100V170 9999 FEW110 21/05 Q1005 NOSIG

METARs OBSOLETI :
  • 240720Z 15016KT 110V170 9999 SCT130 SCT300 20/05 Q1005 NOSIG
  • 240650Z 14014KT 9999 FEW100 BKN120 18/05 Q1005 NOSIG
  • 240620Z 15012KT 9999 FEW110 BKN140 19/05 Q1005 NOSIG
  • 240550Z 17006KT 120V270 9999 FEW100 BKN150 18/05 Q1005 NOSIG
  • 240520Z 15012KT 110V170 9999 FEW100 BKN150 16/05 Q1004 NOSIG

TAF TAF LOWS
Valido dal 24 a 06 ore il 25 a 06 ore UTC


240515Z 2406/2506 15009KT 9999 FEW070 SCT140 TX26/2414Z TN14/2504Z
TEMPO 2406/2418 15015G25KT
BECMG 2421/2423 15005KT CAVOK
Nessun NOTAM noto per questo aeroporto.



MetMap, La meteo Aeronautica in un colpo d'occhio ! - Copyright ORBIFLY Dicembre 2007 - Disclaimer

ORBIFLY MET'MAP TEAM :

Programmazione e sviluppo : Alexandra Zaïnal
Concezione e sviluppo : Baudouin d'Aumeries
Co-Programmazione e sviluppo : Marc-Olivier Méhu
Supporto tecnico e logistico : Manuel Goepfert
Aiuto per la traduzione : Arnaldo La Scala

Contatto : metmap@orbifly.com




FONTI E CREDITI :

   NOAA